sensor_id;sensor_type;location;lat;lon;timestamp;P1;durP1;ratioP1;P2;durP2;ratioP2
37299;SDS011;23184;51.902;12.836;2023-11-21T00:01:35;25.75;;;5.90;;
37299;SDS011;23184;51.902;12.836;2023-11-21T00:04:01;12.68;;;6.18;;
37299;SDS011;23184;51.902;12.836;2023-11-21T00:06:26;14.95;;;5.38;;
37299;SDS011;23184;51.902;12.836;2023-11-21T00:08:52;12.95;;;5.55;;
37299;SDS011;23184;51.902;12.836;2023-11-21T00:11:17;17.65;;;5.80;;
37299;SDS011;23184;51.902;12.836;2023-11-21T00:13:43;18.40;;;5.70;;
37299;SDS011;23184;51.902;12.836;2023-11-21T00:16:08;19.08;;;5.88;;
37299;SDS011;23184;51.902;12.836;2023-11-21T00:18:34;25.92;;;6.00;;
37299;SDS011;23184;51.902;12.836;2023-11-21T00:21:00;20.38;;;5.43;;
37299;SDS011;23184;51.902;12.836;2023-11-21T00:23:26;17.38;;;6.35;;
37299;SDS011;23184;51.902;12.836;2023-11-21T00:25:51;13.35;;;5.72;;
37299;SDS011;23184;51.902;12.836;2023-11-21T00:28:17;17.60;;;5.55;;
37299;SDS011;23184;51.902;12.836;2023-11-21T00:30:43;14.57;;;5.55;;
37299;SDS011;23184;51.902;12.836;2023-11-21T00:33:08;16.95;;;5.82;;
37299;SDS011;23184;51.902;12.836;2023-11-21T00:35:34;16.83;;;5.95;;
37299;SDS011;23184;51.902;12.836;2023-11-21T00:38:00;15.45;;;6.07;;
37299;SDS011;23184;51.902;12.836;2023-11-21T00:40:25;22.27;;;6.10;;
37299;SDS011;23184;51.902;12.836;2023-11-21T00:42:51;12.90;;;6.15;;
37299;SDS011;23184;51.902;12.836;2023-11-21T00:45:16;18.20;;;6.47;;
37299;SDS011;23184;51.902;12.836;2023-11-21T00:47:42;18.17;;;6.55;;
37299;SDS011;23184;51.902;12.836;2023-11-21T00:50:07;15.10;;;6.28;;
37299;SDS011;23184;51.902;12.836;2023-11-21T00:52:34;17.75;;;6.43;;
37299;SDS011;23184;51.902;12.836;2023-11-21T00:55:00;22.23;;;6.88;;
37299;SDS011;23184;51.902;12.836;2023-11-21T00:57:27;22.50;;;6.53;;
37299;SDS011;23184;51.902;12.836;2023-11-21T00:59:53;27.70;;;6.72;;
37299;SDS011;23184;51.902;12.836;2023-11-21T01:02:19;23.67;;;7.82;;
37299;SDS011;23184;51.902;12.836;2023-11-21T01:04:45;23.35;;;7.50;;
37299;SDS011;23184;51.902;12.836;2023-11-21T01:07:10;27.15;;;7.68;;
37299;SDS011;23184;51.902;12.836;2023-11-21T01:09:36;27.75;;;9.35;;
37299;SDS011;23184;51.902;12.836;2023-11-21T01:12:01;18.45;;;7.40;;
37299;SDS011;23184;51.902;12.836;2023-11-21T01:14:27;22.65;;;7.03;;
37299;SDS011;23184;51.902;12.836;2023-11-21T01:16:53;27.45;;;7.15;;
37299;SDS011;23184;51.902;12.836;2023-11-21T01:19:18;19.73;;;7.53;;
37299;SDS011;23184;51.902;12.836;2023-11-21T01:21:44;26.75;;;7.97;;
37299;SDS011;23184;51.902;12.836;2023-11-21T01:24:09;23.30;;;7.70;;
37299;SDS011;23184;51.902;12.836;2023-11-21T01:26:35;20.92;;;7.45;;
37299;SDS011;23184;51.902;12.836;2023-11-21T01:29:01;26.05;;;8.35;;
37299;SDS011;23184;51.902;12.836;2023-11-21T01:31:26;32.28;;;8.80;;
37299;SDS011;23184;51.902;12.836;2023-11-21T01:33:54;26.02;;;9.13;;
37299;SDS011;23184;51.902;12.836;2023-11-21T01:36:20;24.25;;;7.82;;
37299;SDS011;23184;51.902;12.836;2023-11-21T01:38:46;31.52;;;8.63;;
37299;SDS011;23184;51.902;12.836;2023-11-21T01:41:13;23.92;;;8.27;;
37299;SDS011;23184;51.902;12.836;2023-11-21T01:43:39;21.27;;;8.30;;
37299;SDS011;23184;51.902;12.836;2023-11-21T01:46:05;25.08;;;8.80;;
37299;SDS011;23184;51.902;12.836;2023-11-21T01:48:31;24.30;;;8.52;;
37299;SDS011;23184;51.902;12.836;2023-11-21T01:50:57;22.13;;;8.20;;
37299;SDS011;23184;51.902;12.836;2023-11-21T01:53:26;32.15;;;8.85;;
37299;SDS011;23184;51.902;12.836;2023-11-21T01:55:53;23.45;;;8.32;;
37299;SDS011;23184;51.902;12.836;2023-11-21T01:58:20;19.10;;;9.30;;
37299;SDS011;23184;51.902;12.836;2023-11-21T02:00:46;20.10;;;8.55;;
37299;SDS011;23184;51.902;12.836;2023-11-21T02:03:15;27.52;;;8.45;;
37299;SDS011;23184;51.902;12.836;2023-11-21T02:05:41;24.83;;;8.45;;
37299;SDS011;23184;51.902;12.836;2023-11-21T02:08:07;24.95;;;8.48;;
37299;SDS011;23184;51.902;12.836;2023-11-21T02:10:34;25.35;;;8.30;;
37299;SDS011;23184;51.902;12.836;2023-11-21T02:13:01;28.45;;;8.70;;
37299;SDS011;23184;51.902;12.836;2023-11-21T02:15:27;27.90;;;8.85;;
37299;SDS011;23184;51.902;12.836;2023-11-21T02:17:53;28.48;;;8.48;;
37299;SDS011;23184;51.902;12.836;2023-11-21T02:20:20;22.75;;;9.25;;
37299;SDS011;23184;51.902;12.836;2023-11-21T02:22:48;26.85;;;9.55;;
37299;SDS011;23184;51.902;12.836;2023-11-21T02:25:14;26.20;;;9.43;;
37299;SDS011;23184;51.902;12.836;2023-11-21T02:27:40;28.02;;;9.70;;
37299;SDS011;23184;51.902;12.836;2023-11-21T02:30:05;26.25;;;9.82;;
37299;SDS011;23184;51.902;12.836;2023-11-21T02:32:33;27.05;;;10.00;;
37299;SDS011;23184;51.902;12.836;2023-11-21T02:34:59;26.50;;;9.75;;
37299;SDS011;23184;51.902;12.836;2023-11-21T02:37:27;31.15;;;9.70;;
37299;SDS011;23184;51.902;12.836;2023-11-21T02:39:52;28.13;;;9.90;;
37299;SDS011;23184;51.902;12.836;2023-11-21T02:45:39;28.85;;;10.05;;
37299;SDS011;23184;51.902;12.836;2023-11-21T02:48:06;25.45;;;9.52;;
37299;SDS011;23184;51.902;12.836;2023-11-21T02:50:32;27.83;;;10.23;;
37299;SDS011;23184;51.902;12.836;2023-11-21T02:52:58;34.22;;;10.55;;
37299;SDS011;23184;51.902;12.836;2023-11-21T02:55:25;27.33;;;10.45;;
37299;SDS011;23184;51.902;12.836;2023-11-21T02:57:51;33.15;;;11.05;;
37299;SDS011;23184;51.902;12.836;2023-11-21T03:00:17;25.27;;;10.70;;
37299;SDS011;23184;51.902;12.836;2023-11-21T03:02:43;35.83;;;11.52;;
37299;SDS011;23184;51.902;12.836;2023-11-21T03:05:08;38.55;;;11.55;;
37299;SDS011;23184;51.902;12.836;2023-11-21T03:07:36;27.52;;;11.85;;
37299;SDS011;23184;51.902;12.836;2023-11-21T03:10:02;31.48;;;11.13;;
37299;SDS011;23184;51.902;12.836;2023-11-21T03:12:29;34.22;;;12.32;;
37299;SDS011;23184;51.902;12.836;2023-11-21T03:14:54;43.22;;;12.95;;
37299;SDS011;23184;51.902;12.836;2023-11-21T03:17:20;46.10;;;12.25;;
37299;SDS011;23184;51.902;12.836;2023-11-21T03:19:46;41.15;;;14.23;;
37299;SDS011;23184;51.902;12.836;2023-11-21T03:22:11;37.63;;;12.63;;
37299;SDS011;23184;51.902;12.836;2023-11-21T03:24:37;46.03;;;13.48;;
37299;SDS011;23184;51.902;12.836;2023-11-21T03:27:03;40.22;;;13.00;;
37299;SDS011;23184;51.902;12.836;2023-11-21T03:29:29;37.17;;;13.05;;
37299;SDS011;23184;51.902;12.836;2023-11-21T03:31:55;41.45;;;13.07;;
37299;SDS011;23184;51.902;12.836;2023-11-21T03:34:24;35.28;;;12.23;;
37299;SDS011;23184;51.902;12.836;2023-11-21T03:36:51;40.70;;;12.63;;
37299;SDS011;23184;51.902;12.836;2023-11-21T03:39:17;40.47;;;14.48;;
37299;SDS011;23184;51.902;12.836;2023-11-21T03:41:44;37.33;;;13.32;;
37299;SDS011;23184;51.902;12.836;2023-11-21T03:44:10;41.75;;;13.30;;
37299;SDS011;23184;51.902;12.836;2023-11-21T03:46:35;35.50;;;12.65;;
37299;SDS011;23184;51.902;12.836;2023-11-21T03:49:01;35.85;;;13.40;;
37299;SDS011;23184;51.902;12.836;2023-11-21T03:51:26;43.17;;;13.27;;
37299;SDS011;23184;51.902;12.836;2023-11-21T03:53:52;45.63;;;15.85;;
37299;SDS011;23184;51.902;12.836;2023-11-21T03:56:17;38.55;;;13.50;;
37299;SDS011;23184;51.902;12.836;2023-11-21T03:58:43;40.17;;;13.07;;
37299;SDS011;23184;51.902;12.836;2023-11-21T04:01:08;36.88;;;12.93;;
37299;SDS011;23184;51.902;12.836;2023-11-21T04:03:34;35.60;;;13.75;;
37299;SDS011;23184;51.902;12.836;2023-11-21T04:05:59;40.47;;;13.80;;
37299;SDS011;23184;51.902;12.836;2023-11-21T04:08:26;32.40;;;11.95;;
37299;SDS011;23184;51.902;12.836;2023-11-21T04:10:51;35.60;;;12.57;;
37299;SDS011;23184;51.902;12.836;2023-11-21T04:13:18;35.42;;;12.88;;
37299;SDS011;23184;51.902;12.836;2023-11-21T04:15:44;32.75;;;12.60;;
37299;SDS011;23184;51.902;12.836;2023-11-21T04:18:09;31.08;;;10.88;;
37299;SDS011;23184;51.902;12.836;2023-11-21T04:20:35;22.95;;;10.75;;
37299;SDS011;23184;51.902;12.836;2023-11-21T04:23:00;26.10;;;10.55;;
37299;SDS011;23184;51.902;12.836;2023-11-21T04:25:26;24.35;;;9.73;;
37299;SDS011;23184;51.902;12.836;2023-11-21T04:27:53;28.85;;;10.10;;
37299;SDS011;23184;51.902;12.836;2023-11-21T04:30:19;25.05;;;9.27;;
37299;SDS011;23184;51.902;12.836;2023-11-21T04:32:45;27.00;;;9.30;;
37299;SDS011;23184;51.902;12.836;2023-11-21T04:35:11;26.30;;;9.68;;
37299;SDS011;23184;51.902;12.836;2023-11-21T04:37:37;26.85;;;9.35;;
37299;SDS011;23184;51.902;12.836;2023-11-21T04:40:03;21.42;;;9.48;;
37299;SDS011;23184;51.902;12.836;2023-11-21T04:42:33;24.73;;;9.35;;
37299;SDS011;23184;51.902;12.836;2023-11-21T04:45:02;23.75;;;9.45;;
37299;SDS011;23184;51.902;12.836;2023-11-21T04:47:32;17.77;;;8.75;;
37299;SDS011;23184;51.902;12.836;2023-11-21T04:49:57;18.75;;;8.65;;
37299;SDS011;23184;51.902;12.836;2023-11-21T04:52:23;12.35;;;6.07;;
37299;SDS011;23184;51.902;12.836;2023-11-21T04:54:49;10.43;;;5.30;;
37299;SDS011;23184;51.902;12.836;2023-11-21T04:57:14;7.90;;;5.05;;
37299;SDS011;23184;51.902;12.836;2023-11-21T04:59:43;7.68;;;4.40;;
37299;SDS011;23184;51.902;12.836;2023-11-21T05:02:08;5.95;;;4.20;;
37299;SDS011;23184;51.902;12.836;2023-11-21T05:04:34;5.43;;;3.70;;
37299;SDS011;23184;51.902;12.836;2023-11-21T05:06:59;5.70;;;3.22;;
37299;SDS011;23184;51.902;12.836;2023-11-21T05:09:25;4.72;;;3.58;;
37299;SDS011;23184;51.902;12.836;2023-11-21T05:11:53;7.40;;;3.90;;
37299;SDS011;23184;51.902;12.836;2023-11-21T05:14:19;7.75;;;4.75;;
37299;SDS011;23184;51.902;12.836;2023-11-21T05:16:45;8.27;;;4.28;;
37299;SDS011;23184;51.902;12.836;2023-11-21T05:19:10;7.28;;;4.05;;
37299;SDS011;23184;51.902;12.836;2023-11-21T05:21:38;7.07;;;4.10;;
37299;SDS011;23184;51.902;12.836;2023-11-21T05:24:03;7.82;;;4.35;;
37299;SDS011;23184;51.902;12.836;2023-11-21T05:26:30;7.97;;;3.88;;
37299;SDS011;23184;51.902;12.836;2023-11-21T05:28:56;13.15;;;5.65;;
37299;SDS011;23184;51.902;12.836;2023-11-21T05:31:21;11.13;;;5.10;;
37299;SDS011;23184;51.902;12.836;2023-11-21T05:33:47;11.02;;;5.38;;
37299;SDS011;23184;51.902;12.836;2023-11-21T05:36:13;12.63;;;6.55;;
37299;SDS011;23184;51.902;12.836;2023-11-21T05:38:39;16.70;;;7.00;;
37299;SDS011;23184;51.902;12.836;2023-11-21T05:41:04;12.02;;;6.95;;
37299;SDS011;23184;51.902;12.836;2023-11-21T05:43:30;15.48;;;7.72;;
37299;SDS011;23184;51.902;12.836;2023-11-21T05:45:57;21.02;;;8.57;;
37299;SDS011;23184;51.902;12.836;2023-11-21T05:48:22;18.88;;;9.07;;
37299;SDS011;23184;51.902;12.836;2023-11-21T05:50:48;23.70;;;10.30;;
37299;SDS011;23184;51.902;12.836;2023-11-21T05:53:17;33.92;;;13.30;;
37299;SDS011;23184;51.902;12.836;2023-11-21T05:55:42;41.95;;;16.45;;
37299;SDS011;23184;51.902;12.836;2023-11-21T05:58:08;47.60;;;15.73;;
37299;SDS011;23184;51.902;12.836;2023-11-21T06:00:34;51.38;;;16.92;;
37299;SDS011;23184;51.902;12.836;2023-11-21T06:03:00;40.63;;;15.63;;
37299;SDS011;23184;51.902;12.836;2023-11-21T06:05:25;33.13;;;12.80;;
37299;SDS011;23184;51.902;12.836;2023-11-21T06:07:52;34.95;;;12.98;;
37299;SDS011;23184;51.902;12.836;2023-11-21T06:10:22;33.63;;;12.80;;
37299;SDS011;23184;51.902;12.836;2023-11-21T06:12:48;36.38;;;12.75;;
37299;SDS011;23184;51.902;12.836;2023-11-21T06:15:14;30.52;;;11.88;;
37299;SDS011;23184;51.902;12.836;2023-11-21T06:17:41;31.13;;;12.57;;
37299;SDS011;23184;51.902;12.836;2023-11-21T06:20:08;34.10;;;12.05;;
37299;SDS011;23184;51.902;12.836;2023-11-21T06:22:36;37.88;;;13.13;;
37299;SDS011;23184;51.902;12.836;2023-11-21T06:25:06;38.67;;;13.13;;
37299;SDS011;23184;51.902;12.836;2023-11-21T06:27:40;42.03;;;15.02;;
37299;SDS011;23184;51.902;12.836;2023-11-21T06:30:09;33.85;;;12.10;;
37299;SDS011;23184;51.902;12.836;2023-11-21T06:32:36;34.45;;;12.88;;
37299;SDS011;23184;51.902;12.836;2023-11-21T06:35:03;36.13;;;14.40;;
37299;SDS011;23184;51.902;12.836;2023-11-21T06:37:29;30.17;;;12.43;;
37299;SDS011;23184;51.902;12.836;2023-11-21T06:39:56;35.83;;;13.35;;
37299;SDS011;23184;51.902;12.836;2023-11-21T06:42:23;26.58;;;11.90;;
37299;SDS011;23184;51.902;12.836;2023-11-21T06:44:49;27.00;;;11.93;;
37299;SDS011;23184;51.902;12.836;2023-11-21T06:47:27;24.92;;;11.43;;
37299;SDS011;23184;51.902;12.836;2023-11-21T06:49:54;20.42;;;11.10;;
37299;SDS011;23184;51.902;12.836;2023-11-21T06:52:20;24.65;;;11.98;;
37299;SDS011;23184;51.902;12.836;2023-11-21T06:54:45;27.30;;;11.90;;
37299;SDS011;23184;51.902;12.836;2023-11-21T06:57:12;24.08;;;13.02;;
37299;SDS011;23184;51.902;12.836;2023-11-21T06:59:38;29.17;;;14.48;;
37299;SDS011;23184;51.902;12.836;2023-11-21T07:02:04;26.13;;;14.70;;
37299;SDS011;23184;51.902;12.836;2023-11-21T07:04:32;27.20;;;15.82;;
37299;SDS011;23184;51.902;12.836;2023-11-21T07:06:58;28.60;;;15.27;;
37299;SDS011;23184;51.902;12.836;2023-11-21T07:09:24;34.13;;;16.92;;
37299;SDS011;23184;51.902;12.836;2023-11-21T07:11:51;29.77;;;16.55;;
37299;SDS011;23184;51.902;12.836;2023-11-21T07:14:20;34.75;;;18.92;;
37299;SDS011;23184;51.902;12.836;2023-11-21T07:16:46;36.42;;;18.33;;
37299;SDS011;23184;51.902;12.836;2023-11-21T07:19:12;33.33;;;18.20;;
37299;SDS011;23184;51.902;12.836;2023-11-21T07:21:38;34.38;;;18.48;;
37299;SDS011;23184;51.902;12.836;2023-11-21T07:24:04;36.05;;;19.08;;
37299;SDS011;23184;51.902;12.836;2023-11-21T07:26:31;32.28;;;17.80;;
37299;SDS011;23184;51.902;12.836;2023-11-21T07:28:58;32.83;;;16.88;;
37299;SDS011;23184;51.902;12.836;2023-11-21T07:31:24;30.33;;;16.10;;
37299;SDS011;23184;51.902;12.836;2023-11-21T07:33:49;29.05;;;15.75;;
37299;SDS011;23184;51.902;12.836;2023-11-21T07:36:16;29.65;;;15.45;;
37299;SDS011;23184;51.902;12.836;2023-11-21T07:38:43;28.17;;;14.20;;
37299;SDS011;23184;51.902;12.836;2023-11-21T07:41:10;26.13;;;14.27;;
37299;SDS011;23184;51.902;12.836;2023-11-21T07:43:36;25.92;;;14.15;;
37299;SDS011;23184;51.902;12.836;2023-11-21T07:46:02;22.50;;;12.55;;
37299;SDS011;23184;51.902;12.836;2023-11-21T07:48:31;47.15;;;14.77;;
37299;SDS011;23184;51.902;12.836;2023-11-21T07:50:57;23.70;;;12.90;;
37299;SDS011;23184;51.902;12.836;2023-11-21T07:53:24;27.30;;;14.27;;
37299;SDS011;23184;51.902;12.836;2023-11-21T07:55:50;26.95;;;14.15;;
37299;SDS011;23184;51.902;12.836;2023-11-21T07:58:17;24.77;;;13.05;;
37299;SDS011;23184;51.902;12.836;2023-11-21T08:00:43;25.27;;;13.15;;
37299;SDS011;23184;51.902;12.836;2023-11-21T08:03:08;22.67;;;13.27;;
37299;SDS011;23184;51.902;12.836;2023-11-21T08:05:34;22.17;;;12.25;;
37299;SDS011;23184;51.902;12.836;2023-11-21T08:07:59;25.73;;;11.98;;
37299;SDS011;23184;51.902;12.836;2023-11-21T08:10:25;21.70;;;12.07;;
37299;SDS011;23184;51.902;12.836;2023-11-21T08:12:51;23.90;;;11.93;;
37299;SDS011;23184;51.902;12.836;2023-11-21T08:15:16;23.27;;;13.32;;
37299;SDS011;23184;51.902;12.836;2023-11-21T08:17:42;21.20;;;12.20;;
37299;SDS011;23184;51.902;12.836;2023-11-21T08:20:07;24.10;;;12.50;;
37299;SDS011;23184;51.902;12.836;2023-11-21T08:22:35;22.98;;;12.15;;
37299;SDS011;23184;51.902;12.836;2023-11-21T08:25:01;23.20;;;11.38;;
37299;SDS011;23184;51.902;12.836;2023-11-21T08:27:29;20.88;;;10.32;;
37299;SDS011;23184;51.902;12.836;2023-11-21T08:29:54;22.02;;;11.63;;
37299;SDS011;23184;51.902;12.836;2023-11-21T08:32:21;19.45;;;11.05;;
37299;SDS011;23184;51.902;12.836;2023-11-21T08:34:47;21.98;;;12.35;;
37299;SDS011;23184;51.902;12.836;2023-11-21T08:37:15;20.95;;;11.38;;
37299;SDS011;23184;51.902;12.836;2023-11-21T08:39:41;19.48;;;11.18;;
37299;SDS011;23184;51.902;12.836;2023-11-21T08:42:08;21.40;;;11.43;;
37299;SDS011;23184;51.902;12.836;2023-11-21T08:44:33;20.13;;;11.10;;
37299;SDS011;23184;51.902;12.836;2023-11-21T08:46:59;18.90;;;10.15;;
37299;SDS011;23184;51.902;12.836;2023-11-21T08:49:24;17.20;;;9.48;;
37299;SDS011;23184;51.902;12.836;2023-11-21T08:51:52;18.10;;;10.57;;
37299;SDS011;23184;51.902;12.836;2023-11-21T08:54:20;17.85;;;9.88;;
37299;SDS011;23184;51.902;12.836;2023-11-21T08:56:46;16.02;;;9.20;;
37299;SDS011;23184;51.902;12.836;2023-11-21T08:59:11;18.67;;;9.32;;
37299;SDS011;23184;51.902;12.836;2023-11-21T09:01:40;18.00;;;9.27;;
37299;SDS011;23184;51.902;12.836;2023-11-21T09:04:05;18.30;;;10.15;;
37299;SDS011;23184;51.902;12.836;2023-11-21T09:06:31;21.58;;;10.02;;
37299;SDS011;23184;51.902;12.836;2023-11-21T09:08:57;22.52;;;10.80;;
37299;SDS011;23184;51.902;12.836;2023-11-21T09:11:23;22.23;;;10.05;;
37299;SDS011;23184;51.902;12.836;2023-11-21T09:13:50;20.70;;;10.07;;
37299;SDS011;23184;51.902;12.836;2023-11-21T09:16:16;20.67;;;11.13;;
37299;SDS011;23184;51.902;12.836;2023-11-21T09:18:42;20.77;;;11.15;;
37299;SDS011;23184;51.902;12.836;2023-11-21T09:21:07;20.23;;;10.77;;
37299;SDS011;23184;51.902;12.836;2023-11-21T09:23:33;22.25;;;11.00;;
37299;SDS011;23184;51.902;12.836;2023-11-21T09:26:00;21.33;;;10.20;;
37299;SDS011;23184;51.902;12.836;2023-11-21T09:28:26;22.13;;;10.48;;
37299;SDS011;23184;51.902;12.836;2023-11-21T09:30:52;16.63;;;9.55;;
37299;SDS011;23184;51.902;12.836;2023-11-21T09:33:20;19.02;;;9.30;;
37299;SDS011;23184;51.902;12.836;2023-11-21T09:35:47;15.98;;;8.13;;
37299;SDS011;23184;51.902;12.836;2023-11-21T09:38:14;16.65;;;9.85;;
37299;SDS011;23184;51.902;12.836;2023-11-21T09:40:40;14.73;;;7.65;;
37299;SDS011;23184;51.902;12.836;2023-11-21T09:43:06;17.52;;;8.50;;
37299;SDS011;23184;51.902;12.836;2023-11-21T09:45:41;12.68;;;7.50;;
37299;SDS011;23184;51.902;12.836;2023-11-21T09:48:18;14.02;;;7.47;;
37299;SDS011;23184;51.902;12.836;2023-11-21T09:50:45;10.50;;;6.25;;
37299;SDS011;23184;51.902;12.836;2023-11-21T09:53:17;14.25;;;7.53;;
37299;SDS011;23184;51.902;12.836;2023-11-21T09:55:48;12.75;;;7.57;;
37299;SDS011;23184;51.902;12.836;2023-11-21T09:58:16;12.20;;;6.53;;
37299;SDS011;23184;51.902;12.836;2023-11-21T10:00:44;10.90;;;6.70;;
37299;SDS011;23184;51.902;12.836;2023-11-21T10:03:14;11.88;;;6.40;;
37299;SDS011;23184;51.902;12.836;2023-11-21T10:05:42;14.68;;;6.35;;
37299;SDS011;23184;51.902;12.836;2023-11-21T10:08:11;10.98;;;6.43;;
37299;SDS011;23184;51.902;12.836;2023-11-21T10:10:38;8.82;;;5.47;;
37299;SDS011;23184;51.902;12.836;2023-11-21T10:13:11;11.02;;;5.97;;
37299;SDS011;23184;51.902;12.836;2023-11-21T10:15:38;7.40;;;4.43;;
37299;SDS011;23184;51.902;12.836;2023-11-21T10:18:09;8.95;;;5.40;;
37299;SDS011;23184;51.902;12.836;2023-11-21T10:20:35;9.75;;;6.03;;
37299;SDS011;23184;51.902;12.836;2023-11-21T10:23:02;10.50;;;5.72;;
37299;SDS011;23184;51.902;12.836;2023-11-21T10:25:29;9.23;;;5.60;;
37299;SDS011;23184;51.902;12.836;2023-11-21T10:27:59;10.27;;;5.43;;
37299;SDS011;23184;51.902;12.836;2023-11-21T10:30:35;9.98;;;5.30;;
37299;SDS011;23184;51.902;12.836;2023-11-21T10:33:02;8.50;;;5.47;;
37299;SDS011;23184;51.902;12.836;2023-11-21T10:38:07;8.88;;;5.20;;
37299;SDS011;23184;51.902;12.836;2023-11-21T10:40:38;8.30;;;4.57;;
37299;SDS011;23184;51.902;12.836;2023-11-21T10:43:07;8.32;;;5.25;;
37299;SDS011;23184;51.902;12.836;2023-11-21T10:45:34;10.45;;;5.53;;
37299;SDS011;23184;51.902;12.836;2023-11-21T10:48:04;9.88;;;4.53;;
37299;SDS011;23184;51.902;12.836;2023-11-21T10:50:35;8.82;;;4.70;;
37299;SDS011;23184;51.902;12.836;2023-11-21T10:53:02;7.15;;;4.80;;
37299;SDS011;23184;51.902;12.836;2023-11-21T10:55:29;6.78;;;4.18;;
37299;SDS011;23184;51.902;12.836;2023-11-21T10:57:57;5.82;;;4.03;;
37299;SDS011;23184;51.902;12.836;2023-11-21T11:00:24;9.30;;;4.55;;
37299;SDS011;23184;51.902;12.836;2023-11-21T11:02:52;8.80;;;4.88;;
37299;SDS011;23184;51.902;12.836;2023-11-21T11:05:21;7.05;;;4.05;;
37299;SDS011;23184;51.902;12.836;2023-11-21T11:07:52;7.78;;;4.32;;
37299;SDS011;23184;51.902;12.836;2023-11-21T11:10:26;7.97;;;4.20;;
37299;SDS011;23184;51.902;12.836;2023-11-21T11:12:54;6.13;;;3.65;;
37299;SDS011;23184;51.902;12.836;2023-11-21T11:15:20;6.28;;;4.45;;
37299;SDS011;23184;51.902;12.836;2023-11-21T11:17:46;6.13;;;4.13;;
37299;SDS011;23184;51.902;12.836;2023-11-21T11:20:14;7.78;;;3.80;;
37299;SDS011;23184;51.902;12.836;2023-11-21T11:37:01;6.35;;;3.97;;
37299;SDS011;23184;51.902;12.836;2023-11-21T11:41:59;7.07;;;3.63;;
37299;SDS011;23184;51.902;12.836;2023-11-21T11:50:01;8.35;;;3.50;;
37299;SDS011;23184;51.902;12.836;2023-11-21T11:52:45;6.10;;;3.60;;
37299;SDS011;23184;51.902;12.836;2023-11-21T11:55:13;4.85;;;3.30;;
37299;SDS011;23184;51.902;12.836;2023-11-21T11:57:41;6.10;;;3.30;;
37299;SDS011;23184;51.902;12.836;2023-11-21T12:02:47;7.35;;;3.90;;
37299;SDS011;23184;51.902;12.836;2023-11-21T12:05:23;5.47;;;3.33;;
37299;SDS011;23184;51.902;12.836;2023-11-21T12:08:02;5.45;;;3.53;;
37299;SDS011;23184;51.902;12.836;2023-11-21T12:10:32;5.38;;;3.40;;
37299;SDS011;23184;51.902;12.836;2023-11-21T12:13:01;6.00;;;3.47;;
37299;SDS011;23184;51.902;12.836;2023-11-21T12:15:38;6.75;;;3.45;;
37299;SDS011;23184;51.902;12.836;2023-11-21T12:18:06;4.53;;;2.90;;
37299;SDS011;23184;51.902;12.836;2023-11-21T12:20:32;6.65;;;3.45;;
37299;SDS011;23184;51.902;12.836;2023-11-21T12:23:03;4.75;;;3.00;;
37299;SDS011;23184;51.902;12.836;2023-11-21T12:25:30;4.47;;;3.03;;
37299;SDS011;23184;51.902;12.836;2023-11-21T12:27:57;3.97;;;2.55;;
37299;SDS011;23184;51.902;12.836;2023-11-21T12:30:25;5.47;;;2.85;;
37299;SDS011;23184;51.902;12.836;2023-11-21T12:32:55;4.30;;;2.85;;
37299;SDS011;23184;51.902;12.836;2023-11-21T12:35:24;5.07;;;2.70;;
37299;SDS011;23184;51.902;12.836;2023-11-21T12:37:51;4.25;;;2.70;;
37299;SDS011;23184;51.902;12.836;2023-11-21T12:40:18;5.65;;;3.38;;
37299;SDS011;23184;51.902;12.836;2023-11-21T12:42:45;6.35;;;2.92;;
37299;SDS011;23184;51.902;12.836;2023-11-21T12:47:56;4.32;;;2.72;;
37299;SDS011;23184;51.902;12.836;2023-11-21T12:50:25;3.50;;;2.40;;
37299;SDS011;23184;51.902;12.836;2023-11-21T12:53:00;3.97;;;2.65;;
37299;SDS011;23184;51.902;12.836;2023-11-21T12:55:29;5.28;;;3.20;;
37299;SDS011;23184;51.902;12.836;2023-11-21T12:57:55;8.15;;;2.63;;
37299;SDS011;23184;51.902;12.836;2023-11-21T13:00:30;6.22;;;3.13;;
37299;SDS011;23184;51.902;12.836;2023-11-21T13:02:58;4.40;;;2.70;;
37299;SDS011;23184;51.902;12.836;2023-11-21T13:05:25;3.75;;;2.60;;
37299;SDS011;23184;51.902;12.836;2023-11-21T13:07:56;6.88;;;3.28;;
37299;SDS011;23184;51.902;12.836;2023-11-21T13:10:24;4.88;;;3.20;;
37299;SDS011;23184;51.902;12.836;2023-11-21T13:12:54;5.50;;;3.20;;
37299;SDS011;23184;51.902;12.836;2023-11-21T13:15:22;14.60;;;3.42;;
37299;SDS011;23184;51.902;12.836;2023-11-21T13:17:49;4.55;;;3.38;;
37299;SDS011;23184;51.902;12.836;2023-11-21T13:20:16;7.93;;;3.85;;
37299;SDS011;23184;51.902;12.836;2023-11-21T13:25:30;52.58;;;32.75;;
37299;SDS011;23184;51.902;12.836;2023-11-21T13:27:56;7.22;;;4.32;;
37299;SDS011;23184;51.902;12.836;2023-11-21T13:30:23;9.10;;;6.03;;
37299;SDS011;23184;51.902;12.836;2023-11-21T13:32:58;25.10;;;20.10;;
37299;SDS011;23184;51.902;12.836;2023-11-21T13:35:30;9.77;;;6.32;;
37299;SDS011;23184;51.902;12.836;2023-11-21T13:38:13;7.38;;;4.05;;
37299;SDS011;23184;51.902;12.836;2023-11-21T13:40:41;7.53;;;4.75;;
37299;SDS011;23184;51.902;12.836;2023-11-21T13:43:13;6.97;;;4.43;;
37299;SDS011;23184;51.902;12.836;2023-11-21T13:45:40;7.78;;;4.22;;
37299;SDS011;23184;51.902;12.836;2023-11-21T13:48:08;11.73;;;4.75;;
37299;SDS011;23184;51.902;12.836;2023-11-21T13:50:39;5.90;;;4.20;;
37299;SDS011;23184;51.902;12.836;2023-11-21T13:53:13;8.27;;;4.40;;
37299;SDS011;23184;51.902;12.836;2023-11-21T13:55:49;6.38;;;3.90;;
37299;SDS011;23184;51.902;12.836;2023-11-21T13:58:16;8.73;;;7.28;;
37299;SDS011;23184;51.902;12.836;2023-11-21T14:00:48;9.77;;;7.20;;
37299;SDS011;23184;51.902;12.836;2023-11-21T14:03:22;7.57;;;4.97;;
37299;SDS011;23184;51.902;12.836;2023-11-21T14:05:57;12.88;;;8.02;;
37299;SDS011;23184;51.902;12.836;2023-11-21T14:08:25;12.45;;;8.38;;
37299;SDS011;23184;51.902;12.836;2023-11-21T14:10:53;11.30;;;5.70;;
37299;SDS011;23184;51.902;12.836;2023-11-21T14:13:22;8.60;;;5.75;;
37299;SDS011;23184;51.902;12.836;2023-11-21T14:15:49;15.23;;;10.75;;
37299;SDS011;23184;51.902;12.836;2023-11-21T14:18:25;63.78;;;37.40;;
37299;SDS011;23184;51.902;12.836;2023-11-21T14:21:15;38.45;;;24.38;;
37299;SDS011;23184;51.902;12.836;2023-11-21T14:23:41;30.10;;;21.13;;
37299;SDS011;23184;51.902;12.836;2023-11-21T14:26:08;12.30;;;8.32;;
37299;SDS011;23184;51.902;12.836;2023-11-21T14:28:33;15.65;;;12.73;;
37299;SDS011;23184;51.902;12.836;2023-11-21T14:31:00;7.80;;;5.93;;
37299;SDS011;23184;51.902;12.836;2023-11-21T14:33:27;9.90;;;6.22;;
37299;SDS011;23184;51.902;12.836;2023-11-21T14:35:52;12.00;;;6.47;;
37299;SDS011;23184;51.902;12.836;2023-11-21T14:38:18;12.10;;;5.70;;
37299;SDS011;23184;51.902;12.836;2023-11-21T14:40:43;8.68;;;5.20;;
37299;SDS011;23184;51.902;12.836;2023-11-21T14:43:09;9.38;;;4.85;;
37299;SDS011;23184;51.902;12.836;2023-11-21T14:45:35;9.43;;;4.88;;
37299;SDS011;23184;51.902;12.836;2023-11-21T14:48:01;6.30;;;4.43;;
37299;SDS011;23184;51.902;12.836;2023-11-21T14:50:29;8.77;;;3.95;;
37299;SDS011;23184;51.902;12.836;2023-11-21T14:53:08;5.97;;;3.13;;
37299;SDS011;23184;51.902;12.836;2023-11-21T14:55:35;6.22;;;3.63;;
37299;SDS011;23184;51.902;12.836;2023-11-21T14:58:04;5.97;;;3.53;;